Time;durP1;ratioP1;P1;durP2;ratioP2;P2;SDS_P1;SDS_P2;PMS_P1;PMS_P2;Temp;Humidity;BMP_temperature;BMP_pressure;BME280_temperature;BME280_humidity;BME280_pressure;Samples;Min_cycle;Max_cycle;Signal;HPM_P1;HPM_P2
2020/12/24 00:01:26;;;;;;;1.60;1.50;;;10.10;93.30;;;;;;5127226;27;20619;-77
2020/12/24 00:03:55;;;;;;;1.40;1.30;;;10.00;93.70;;;;;;5135828;27;20450;-77
2020/12/24 00:06:21;;;;;;;1.77;1.67;;;10.00;94.10;;;;;;5130726;27;20642;-77
2020/12/24 00:08:47;;;;;;;1.40;1.30;;;10.00;94.00;;;;;;5137215;27;20450;-76
2020/12/24 00:11:14;;;;;;;2.17;1.27;;;10.00;93.90;;;;;;5138365;27;20455;-77
2020/12/24 00:13:40;;;;;;;1.33;1.23;;;10.00;94.30;;;;;;5140606;27;20450;-77
2020/12/24 00:16:07;;;;;;;1.40;1.30;;;10.00;93.40;;;;;;5137343;27;20468;-77
2020/12/24 00:18:35;;;;;;;1.40;1.30;;;10.00;93.20;;;;;;5142640;27;20446;-78
2020/12/24 00:21:01;;;;;;;1.47;1.37;;;10.00;93.60;;;;;;5134464;27;20470;-76
2020/12/24 00:23:28;;;;;;;1.90;1.10;;;10.00;93.80;;;;;;5136286;27;20485;-76
2020/12/24 00:25:54;;;;;;;0.90;0.90;;;10.00;93.10;;;;;;5133381;27;20579;-76
2020/12/24 00:28:20;;;;;;;1.27;1.17;;;10.00;92.60;;;;;;5135200;27;20491;-76
2020/12/24 00:30:47;;;;;;;1.50;1.40;;;10.00;92.90;;;;;;5133558;27;20885;-76
2020/12/24 00:33:17;;;;;;;1.60;1.33;;;10.00;93.30;;;;;;5132595;27;20448;-75
2020/12/24 00:35:44;;;;;;;2.60;1.00;;;10.00;93.00;;;;;;5128217;27;20461;-75
2020/12/24 00:38:10;;;;;;;1.63;1.17;;;10.00;92.70;;;;;;5131165;27;20446;-76
2020/12/24 00:40:37;;;;;;;1.23;1.13;;;10.00;92.90;;;;;;5132193;27;20481;-76
2020/12/24 00:43:04;;;;;;;0.90;0.90;;;10.00;93.00;;;;;;5129158;27;20450;-76
2020/12/24 00:45:30;;;;;;;1.47;1.07;;;10.00;92.60;;;;;;5131002;27;20465;-75
2020/12/24 00:47:58;;;;;;;3.07;1.10;;;10.00;92.40;;;;;;5127730;27;20446;-76
2020/12/24 00:50:25;;;;;;;1.23;1.10;;;10.00;92.70;;;;;;5135113;27;20438;-75
2020/12/24 00:52:52;;;;;;;2.03;1.00;;;10.00;92.80;;;;;;5129386;27;20450;-76
2020/12/24 00:55:18;;;;;;;1.30;1.20;;;10.00;93.20;;;;;;5131002;27;20468;-76
2020/12/24 00:57:45;;;;;;;0.70;0.70;;;9.90;93.80;;;;;;5127780;27;20465;-76
2020/12/24 01:00:11;;;;;;;1.27;1.10;;;9.90;94.30;;;;;;5136558;27;20958;-76
2020/12/24 01:02:38;;;;;;;3.27;1.60;;;9.90;95.10;;;;;;5132757;27;20471;-76
2020/12/24 01:05:06;;;;;;;1.27;1.17;;;9.90;95.90;;;;;;5133149;27;20456;-75
2020/12/24 01:07:32;;;;;;;1.33;1.23;;;9.80;95.90;;;;;;5127406;27;20458;-75
2020/12/24 01:10:02;;;;;;;1.20;1.10;;;9.80;95.90;;;;;;5130701;27;20474;-75
2020/12/24 01:12:28;;;;;;;1.30;1.20;;;9.80;96.30;;;;;;5127744;27;20493;-75
2020/12/24 01:15:00;;;;;;;1.10;1.00;;;9.80;96.30;;;;;;5130078;27;20454;-75
2020/12/24 01:17:31;;;;;;;1.37;1.07;;;9.80;96.00;;;;;;5126890;27;20443;-76
2020/12/24 01:19:57;;;;;;;1.50;0.97;;;9.80;95.40;;;;;;5129146;27;20446;-76
2020/12/24 01:22:23;;;;;;;1.33;0.93;;;9.80;94.30;;;;;;5128315;27;20450;-76
2020/12/24 01:24:50;;;;;;;1.10;0.97;;;9.80;92.90;;;;;;5129250;27;20528;-76
2020/12/24 01:27:17;;;;;;;1.60;0.90;;;9.80;92.50;;;;;;5127546;27;20530;-75
2020/12/24 01:29:44;;;;;;;1.17;0.80;;;9.80;92.20;;;;;;5126284;27;20834;-76
2020/12/24 01:32:11;;;;;;;1.47;0.70;;;9.90;90.10;;;;;;5129693;27;20542;-76
2020/12/24 01:34:37;;;;;;;1.07;0.83;;;10.00;87.20;;;;;;5127208;27;20481;-76
2020/12/24 01:37:04;;;;;;;1.97;0.70;;;10.00;86.80;;;;;;5130429;27;20451;-76
2020/12/24 01:39:30;;;;;;;0.90;0.60;;;10.00;85.60;;;;;;5126717;27;20853;-76
2020/12/24 01:41:57;;;;;;;1.47;0.80;;;10.10;85.30;;;;;;5130099;27;20503;-76
2020/12/24 01:44:24;;;;;;;1.90;1.07;;;10.10;84.80;;;;;;5127267;27;20988;-76
2020/12/24 01:46:51;;;;;;;1.20;0.87;;;10.10;84.60;;;;;;5125785;27;20529;-76
2020/12/24 01:49:23;;;;;;;0.60;0.40;;;10.10;83.10;;;;;;5127042;27;20458;-76
2020/12/24 01:51:51;;;;;;;0.70;0.50;;;10.20;82.20;;;;;;5127414;27;20525;-75
2020/12/24 01:54:19;;;;;;;1.30;0.70;;;10.20;82.00;;;;;;5122322;27;20472;-75
2020/12/24 01:56:48;;;;;;;0.93;0.70;;;10.20;82.00;;;;;;5123665;27;21028;-76
2020/12/24 01:59:15;;;;;;;1.37;0.63;;;10.20;81.50;;;;;;5122460;27;20502;-76
2020/12/24 02:01:44;;;;;;;1.07;0.70;;;10.20;81.50;;;;;;5129537;27;20442;-74
2020/12/24 02:04:11;;;;;;;2.33;1.30;;;10.20;81.60;;;;;;5127392;27;20450;-75
2020/12/24 02:06:41;;;;;;;1.27;0.73;;;10.20;81.50;;;;;;5124644;27;20454;-75
2020/12/24 02:09:08;;;;;;;1.10;0.50;;;10.20;81.70;;;;;;5126225;27;20554;-76
2020/12/24 02:11:35;;;;;;;0.80;0.50;;;10.20;81.60;;;;;;5125621;27;20482;-72
2020/12/24 02:14:01;;;;;;;1.57;0.50;;;10.20;81.40;;;;;;5127364;27;20446;-74
2020/12/24 02:16:33;;;;;;;1.53;0.60;;;10.10;81.50;;;;;;5125894;27;20567;-73
2020/12/24 02:19:02;;;;;;;0.93;0.60;;;10.10;81.10;;;;;;5127199;27;20447;-73
2020/12/24 02:21:32;;;;;;;1.97;0.50;;;10.00;80.70;;;;;;5126404;27;20454;-73
2020/12/24 02:24:00;;;;;;;1.07;0.77;;;10.00;81.20;;;;;;5128206;27;20458;-73
2020/12/24 02:26:27;;;;;;;1.67;0.60;;;9.90;81.40;;;;;;5126062;27;20455;-73
2020/12/24 02:28:53;;;;;;;1.03;0.63;;;9.90;81.80;;;;;;5127231;27;20465;-73
2020/12/24 02:31:20;;;;;;;1.77;0.97;;;9.80;82.60;;;;;;5125340;27;20526;-73
2020/12/24 02:33:49;;;;;;;1.40;0.50;;;9.70;84.00;;;;;;5127787;27;20504;-73
2020/12/24 02:36:15;;;;;;;1.00;0.53;;;9.50;85.80;;;;;;5118224;27;20801;-73
2020/12/24 02:38:45;;;;;;;2.30;1.00;;;9.50;87.30;;;;;;5127770;27;20469;-73
2020/12/24 02:41:12;;;;;;;2.87;0.77;;;9.40;88.90;;;;;;5126806;27;20537;-73
2020/12/24 02:43:38;;;;;;;0.97;0.90;;;9.30;90.40;;;;;;5129201;27;20549;-73
2020/12/24 02:46:04;;;;;;;2.00;0.50;;;9.30;91.10;;;;;;5124877;27;20818;-73
2020/12/24 02:48:31;;;;;;;0.50;0.50;;;9.20;91.90;;;;;;5127447;27;22667;-73
2020/12/24 02:50:57;;;;;;;1.10;0.50;;;9.20;92.30;;;;;;5124055;27;20471;-73
2020/12/24 02:53:25;;;;;;;1.73;0.73;;;9.20;92.50;;;;;;5128121;27;20503;-73
2020/12/24 02:55:52;;;;;;;0.90;0.53;;;9.20;93.10;;;;;;5123268;27;20886;-73
2020/12/24 02:58:18;;;;;;;1.83;0.60;;;9.20;93.10;;;;;;5124255;27;20469;-73
2020/12/24 03:00:44;;;;;;;2.00;0.70;;;9.20;93.40;;;;;;5127643;27;20458;-74
2020/12/24 03:03:11;;;;;;;0.40;0.40;;;9.30;91.80;;;;;;5124283;27;20489;-74
2020/12/24 03:05:40;;;;;;;1.13;0.50;;;9.40;89.70;;;;;;5126952;27;20450;-73
2020/12/24 03:08:07;;;;;;;0.40;0.40;;;9.40;86.40;;;;;;5124019;27;20497;-73
2020/12/24 03:10:33;;;;;;;1.03;0.60;;;9.50;82.50;;;;;;5127703;27;20431;-73
2020/12/24 03:13:01;;;;;;;1.50;0.80;;;9.50;83.40;;;;;;5123340;27;20446;-74
2020/12/24 03:15:27;;;;;;;0.90;0.47;;;9.40;84.50;;;;;;5126207;27;20590;-74
2020/12/24 03:17:53;;;;;;;0.70;0.50;;;9.40;83.40;;;;;;5122127;27;20533;-74
2020/12/24 03:20:20;;;;;;;0.50;0.47;;;9.40;82.40;;;;;;5127772;27;20465;-74
2020/12/24 03:22:46;;;;;;;0.50;0.40;;;9.40;81.70;;;;;;5125854;27;20486;-74
2020/12/24 03:25:12;;;;;;;1.03;0.50;;;9.40;80.30;;;;;;5126651;27;20485;-74
2020/12/24 03:27:42;;;;;;;1.50;0.43;;;9.30;79.90;;;;;;5124135;28;20552;-73
2020/12/24 03:30:10;;;;;;;0.77;0.57;;;9.30;79.30;;;;;;5121377;27;20457;-73
2020/12/24 03:32:36;;;;;;;0.67;0.40;;;9.30;79.10;;;;;;5119205;27;20975;-73
2020/12/24 03:35:03;;;;;;;1.40;0.60;;;9.30;78.80;;;;;;5127076;27;20510;-73
2020/12/24 03:37:29;;;;;;;1.17;0.60;;;9.30;78.10;;;;;;5127654;27;20988;-73
2020/12/24 03:39:55;;;;;;;0.40;0.40;;;9.30;77.90;;;;;;5125651;27;21129;-73
2020/12/24 03:42:22;;;;;;;0.43;0.33;;;9.30;77.60;;;;;;5126111;27;20446;-73
2020/12/24 03:44:48;;;;;;;1.30;0.43;;;9.30;77.00;;;;;;5125904;27;20490;-73
2020/12/24 03:47:16;;;;;;;1.10;0.50;;;9.20;76.80;;;;;;5127384;27;20525;-73
2020/12/24 03:49:42;;;;;;;0.80;0.60;;;9.20;76.40;;;;;;5119740;27;20455;-73
2020/12/24 03:52:08;;;;;;;1.23;0.60;;;9.20;76.40;;;;;;5128552;27;20488;-73
2020/12/24 03:54:35;;;;;;;1.03;0.50;;;9.20;76.50;;;;;;5122627;27;20542;-73
2020/12/24 03:57:02;;;;;;;0.70;0.47;;;9.10;76.30;;;;;;5132572;27;20454;-73
2020/12/24 03:59:28;;;;;;;1.30;0.57;;;9.00;76.40;;;;;;5130531;27;20541;-73
2020/12/24 04:01:55;;;;;;;1.47;0.60;;;9.00;76.00;;;;;;5134781;27;20446;-73
2020/12/24 04:04:22;;;;;;;1.60;0.40;;;9.00;76.00;;;;;;5130066;27;20478;-73
2020/12/24 04:06:48;;;;;;;0.93;0.67;;;9.00;75.90;;;;;;5125175;27;20450;-74
2020/12/24 04:09:14;;;;;;;0.60;0.50;;;9.00;75.90;;;;;;5120702;27;20542;-73
2020/12/24 04:11:43;;;;;;;0.60;0.40;;;9.00;75.70;;;;;;5130291;27;20458;-73
2020/12/24 04:14:10;;;;;;;1.13;0.60;;;9.00;75.50;;;;;;5128755;27;21005;-71
2020/12/24 04:16:36;;;;;;;0.60;0.40;;;8.90;75.20;;;;;;5131459;27;20916;-72
2020/12/24 04:19:04;;;;;;;0.67;0.37;;;8.90;75.30;;;;;;5131668;27;20442;-72
2020/12/24 04:21:32;;;;;;;1.87;0.60;;;8.90;74.70;;;;;;5128492;27;21006;-73
2020/12/24 04:23:58;;;;;;;0.70;0.40;;;8.90;74.80;;;;;;5128372;27;20548;-73
2020/12/24 04:26:24;;;;;;;0.70;0.40;;;8.90;74.30;;;;;;5126749;27;20481;-72
2020/12/24 04:28:51;;;;;;;1.23;0.43;;;8.90;73.80;;;;;;5132156;27;20457;-72
2020/12/24 04:31:17;;;;;;;1.03;0.50;;;8.90;74.00;;;;;;5132855;27;20450;-72
2020/12/24 04:33:45;;;;;;;1.63;0.57;;;8.80;74.50;;;;;;5133872;27;20473;-72
2020/12/24 04:36:14;;;;;;;1.40;0.40;;;8.80;74.00;;;;;;5129413;27;20526;-72
2020/12/24 04:38:41;;;;;;;0.90;0.60;;;8.80;73.80;;;;;;5131010;27;20852;-72
2020/12/24 04:41:08;;;;;;;0.70;0.40;;;8.70;74.20;;;;;;5129027;27;20580;-74
2020/12/24 04:43:35;;;;;;;1.47;0.50;;;8.70;74.20;;;;;;5130404;27;20471;-72
2020/12/24 04:46:02;;;;;;;1.40;0.43;;;8.70;73.60;;;;;;5129387;27;20472;-72
2020/12/24 04:48:30;;;;;;;1.80;0.40;;;8.70;73.70;;;;;;5129238;27;20852;-73
2020/12/24 04:50:58;;;;;;;2.73;0.50;;;8.60;73.60;;;;;;5128996;27;20565;-73
2020/12/24 04:53:30;;;;;;;0.93;0.53;;;8.60;73.80;;;;;;5127082;27;20507;-73
2020/12/24 04:55:57;;;;;;;0.97;0.40;;;8.60;73.90;;;;;;5128501;27;20472;-73
2020/12/24 04:58:25;;;;;;;0.60;0.50;;;8.60;73.70;;;;;;5128811;27;20526;-73
2020/12/24 05:00:56;;;;;;;1.30;0.37;;;8.50;73.90;;;;;;5128599;27;20430;-73
2020/12/24 05:03:24;;;;;;;0.50;0.37;;;8.50;74.20;;;;;;5135575;27;20450;-73
2020/12/24 05:05:52;;;;;;;2.30;0.73;;;8.40;74.20;;;;;;5131550;27;20473;-73
2020/12/24 05:08:19;;;;;;;0.80;0.50;;;8.40;74.30;;;;;;5125716;27;20514;-73
2020/12/24 05:11:03;;;;;;;0.50;0.30;;;8.40;74.20;;;;;;5133936;27;20457;-73
2020/12/24 05:13:29;;;;;;;1.33;0.60;;;8.40;74.40;;;;;;5133649;27;20458;-73
2020/12/24 05:15:56;;;;;;;2.00;0.50;;;8.40;74.70;;;;;;5136617;27;20470;-73
2020/12/24 05:18:22;;;;;;;1.00;0.43;;;8.40;75.10;;;;;;5126814;27;20952;-72
2020/12/24 05:20:49;;;;;;;1.03;0.40;;;8.40;75.20;;;;;;5135981;27;20483;-72
2020/12/24 05:23:18;;;;;;;1.50;0.40;;;8.30;75.70;;;;;;5132217;27;20501;-73
2020/12/24 05:25:46;;;;;;;2.20;0.90;;;8.20;76.00;;;;;;5136129;27;20449;-73
2020/12/24 05:28:21;;;;;;;0.80;0.50;;;8.10;76.20;;;;;;5135936;27;21092;-73
2020/12/24 05:30:47;;;;;;;0.80;0.57;;;8.20;76.60;;;;;;5131146;27;20537;-72
2020/12/24 05:33:26;;;;;;;4.20;0.50;;;8.10;77.20;;;;;;5127793;27;21096;-72
2020/12/24 05:35:52;;;;;;;0.83;0.50;;;8.10;77.00;;;;;;5131563;27;20505;-73
2020/12/24 05:38:32;;;;;;;0.50;0.47;;;8.20;77.30;;;;;;5129214;27;20474;-72
2020/12/24 05:40:59;;;;;;;0.60;0.37;;;8.20;77.50;;;;;;5130383;27;20451;-73
2020/12/24 05:43:28;;;;;;;1.27;0.60;;;8.20;77.30;;;;;;5130617;27;20867;-74
2020/12/24 05:46:03;;;;;;;1.90;0.50;;;8.20;77.50;;;;;;5129618;27;20538;-73
2020/12/24 05:48:33;;;;;;;1.13;0.40;;;8.20;77.80;;;;;;5124743;27;20454;-73
2020/12/24 05:51:02;;;;;;;1.33;0.53;;;8.20;77.80;;;;;;5132177;27;20449;-73
2020/12/24 05:53:29;;;;;;;2.97;0.50;;;8.20;78.20;;;;;;5132531;27;22171;-73
2020/12/24 05:55:56;;;;;;;2.90;0.63;;;8.10;78.10;;;;;;5130105;27;20519;-72
2020/12/24 05:58:27;;;;;;;1.03;0.70;;;8.10;78.40;;;;;;5128134;27;20486;-73
2020/12/24 06:00:57;;;;;;;3.90;0.80;;;8.10;78.80;;;;;;5127378;27;20498;-72
2020/12/24 06:03:35;;;;;;;0.90;0.50;;;8.00;79.20;;;;;;5131019;27;20460;-73
2020/12/24 06:06:04;;;;;;;0.90;0.50;;;8.00;79.50;;;;;;5135550;27;20522;-73
2020/12/24 06:08:43;;;;;;;2.03;0.67;;;7.80;80.20;;;;;;5128144;27;20486;-73
2020/12/24 06:11:11;;;;;;;0.40;0.33;;;7.70;80.60;;;;;;5129047;27;20619;-73
2020/12/24 06:13:40;;;;;;;1.07;0.70;;;7.60;81.70;;;;;;5129556;27;20481;-73
2020/12/24 06:16:08;;;;;;;0.40;0.40;;;7.60;82.20;;;;;;5129030;27;20501;-73
2020/12/24 06:18:40;;;;;;;1.60;0.50;;;7.60;82.20;;;;;;5132712;27;20531;-73
2020/12/24 06:21:16;;;;;;;1.13;0.50;;;7.60;82.60;;;;;;5127879;27;20474;-73
2020/12/24 06:23:47;;;;;;;1.47;0.80;;;7.60;82.70;;;;;;5128019;27;20957;-72
2020/12/24 06:26:21;;;;;;;1.10;0.70;;;7.70;82.80;;;;;;5126280;27;21132;-73
2020/12/24 06:28:54;;;;;;;0.97;0.50;;;7.70;82.50;;;;;;5125144;27;20443;-72
2020/12/24 06:31:24;;;;;;;0.97;0.80;;;7.80;83.00;;;;;;5125658;27;20533;-73
2020/12/24 06:33:50;;;;;;;0.97;0.90;;;7.80;83.10;;;;;;5128726;27;20496;-74
2020/12/24 06:36:38;;;;;;;1.80;0.83;;;7.80;83.40;;;;;;5124495;27;20560;-73
2020/12/24 06:39:07;;;;;;;0.60;0.40;;;7.80;84.50;;;;;;5121244;27;21025;-73
2020/12/24 06:41:36;;;;;;;1.13;0.73;;;7.80;86.00;;;;;;5124716;27;20445;-73
2020/12/24 06:44:04;;;;;;;2.00;1.00;;;7.80;86.40;;;;;;5129271;27;20538;-74
2020/12/24 06:46:50;;;;;;;1.00;0.80;;;7.70;86.90;;;;;;5126694;27;20545;-73
2020/12/24 06:49:28;;;;;;;2.10;0.97;;;7.70;88.40;;;;;;5128492;27;20474;-72
2020/12/24 06:51:55;;;;;;;2.80;0.63;;;7.60;88.20;;;;;;5125032;27;20464;-72
2020/12/24 06:54:23;;;;;;;2.40;0.47;;;7.60;88.90;;;;;;5126652;27;20457;-73
2020/12/24 06:57:23;;;;;;;5.27;0.80;;;7.50;87.60;;;;;;5123391;27;20442;-73
2020/12/24 07:00:18;;;;;;;1.90;0.77;;;7.40;90.30;;;;;;5124624;27;20545;-72
2020/12/24 07:02:51;;;;;;;1.13;0.53;;;7.30;88.50;;;;;;5125437;27;20548;-72
2020/12/24 07:05:43;;;;;;;1.10;0.60;;;7.30;89.10;;;;;;5127100;27;20549;-72
2020/12/24 07:08:32;;;;;;;1.60;0.63;;;7.30;88.90;;;;;;5127342;27;20563;-72
2020/12/24 07:10:59;;;;;;;1.37;1.00;;;7.20;89.00;;;;;;5125773;27;20549;-72
2020/12/24 07:13:36;;;;;;;3.13;0.80;;;7.20;89.60;;;;;;5126348;27;20532;-73
2020/12/24 07:16:03;;;;;;;1.43;0.87;;;7.10;88.80;;;;;;5125375;27;20480;-73
2020/12/24 07:18:32;;;;;;;1.50;1.07;;;7.10;88.10;;;;;;5126337;27;20528;-73
2020/12/24 07:21:00;;;;;;;1.77;0.87;;;7.10;87.90;;;;;;5128574;27;20534;-73
2020/12/24 07:23:30;;;;;;;2.37;1.83;;;7.10;89.70;;;;;;5125916;27;20457;-73
2020/12/24 07:25:58;;;;;;;1.10;1.00;;;7.00;91.10;;;;;;5127732;27;20469;-73
2020/12/24 07:28:29;;;;;;;1.37;0.80;;;6.80;92.30;;;;;;5124148;27;20453;-73
2020/12/24 07:30:57;;;;;;;1.63;0.70;;;6.60;94.10;;;;;;5128716;27;20442;-73
2020/12/24 07:33:24;;;;;;;2.63;1.07;;;6.40;95.80;;;;;;5126855;27;20576;-73
2020/12/24 07:35:51;;;;;;;1.00;0.90;;;6.40;99.80;;;;;;5130920;27;20464;-73
2020/12/24 07:38:24;;;;;;;1.33;0.90;;;6.30;99.90;;;;;;5131290;27;20807;-73
2020/12/24 07:40:51;;;;;;;1.30;1.20;;;6.30;99.90;;;;;;5134638;27;20452;-73
2020/12/24 07:43:18;;;;;;;1.13;1.00;;;6.40;99.90;;;;;;5121484;27;20457;-72
2020/12/24 07:45:45;;;;;;;2.70;1.17;;;6.40;96.60;;;;;;5131824;27;20955;-72
2020/12/24 07:48:15;;;;;;;2.07;1.10;;;6.40;95.80;;;;;;5128941;27;20477;-73
2020/12/24 07:50:43;;;;;;;1.13;0.97;;;6.40;95.00;;;;;;5131891;27;20442;-73
2020/12/24 07:53:10;;;;;;;3.47;2.63;;;6.60;93.60;;;;;;5126301;27;20949;-72
2020/12/24 07:55:37;;;;;;;2.23;0.90;;;6.80;92.50;;;;;;5126519;27;20568;-73
2020/12/24 07:58:08;;;;;;;1.97;1.40;;;7.00;91.60;;;;;;5121114;27;20497;-73
2020/12/24 08:00:45;;;;;;;1.87;1.10;;;7.10;91.00;;;;;;5121406;27;20957;-73
2020/12/24 08:03:16;;;;;;;1.40;1.30;;;7.20;91.10;;;;;;5124507;27;20485;-73
2020/12/24 08:05:44;;;;;;;1.60;1.40;;;7.20;90.80;;;;;;5131564;27;20445;-73
2020/12/24 08:08:11;;;;;;;1.10;1.00;;;7.30;90.80;;;;;;5126161;27;20897;-73
2020/12/24 08:10:42;;;;;;;9.73;1.43;;;7.30;89.30;;;;;;5131614;27;20493;-73
2020/12/24 08:13:09;;;;;;;2.67;1.40;;;7.40;89.50;;;;;;5132532;27;20443;-74
2020/12/24 08:15:40;;;;;;;1.13;1.03;;;7.40;88.00;;;;;;5128455;27;20523;-73
2020/12/24 08:18:10;;;;;;;2.50;1.20;;;7.50;88.40;;;;;;5130856;27;20454;-74
2020/12/24 08:20:48;;;;;;;3.77;1.40;;;7.60;86.40;;;;;;5125899;27;20454;-74
2020/12/24 08:23:20;;;;;;;1.97;0.87;;;7.60;85.40;;;;;;5124222;27;20503;-73
2020/12/24 08:25:48;;;;;;;1.93;1.43;;;7.70;85.60;;;;;;5126199;27;20458;-74
2020/12/24 08:28:16;;;;;;;1.67;0.87;;;7.70;84.90;;;;;;5128926;27;20446;-74
2020/12/24 08:30:46;;;;;;;2.10;0.93;;;7.70;83.30;;;;;;5124965;27;20557;-73
2020/12/24 08:33:13;;;;;;;6.20;3.20;;;7.80;82.90;;;;;;5132067;27;20537;-73
2020/12/24 08:35:43;;;;;;;2.90;1.03;;;7.90;82.40;;;;;;5129827;27;20473;-73
2020/12/24 08:38:11;;;;;;;1.97;1.40;;;7.80;81.20;;;;;;5128577;27;20541;-73
2020/12/24 08:40:42;;;;;;;2.30;1.30;;;7.90;81.90;;;;;;5123608;27;20569;-75
2020/12/24 08:43:11;;;;;;;1.87;1.30;;;7.80;81.10;;;;;;5128972;27;20529;-74
2020/12/24 08:45:44;;;;;;;1.60;1.00;;;7.90;80.60;;;;;;5128285;27;20504;-71
2020/12/24 08:48:11;;;;;;;2.50;1.20;;;7.90;80.30;;;;;;5128782;27;20489;-73
2020/12/24 08:50:40;;;;;;;2.23;1.20;;;7.90;79.90;;;;;;5129465;27;21384;-72
2020/12/24 08:53:21;;;;;;;1.60;0.97;;;8.00;80.10;;;;;;5130416;27;20581;-73
2020/12/24 08:55:48;;;;;;;1.80;1.10;;;8.10;80.40;;;;;;5123994;27;20474;-73
2020/12/24 08:58:14;;;;;;;1.07;0.97;;;8.20;80.00;;;;;;5130367;27;20453;-73
2020/12/24 09:00:41;;;;;;;2.90;1.10;;;8.40;79.80;;;;;;5129272;27;21091;-74
2020/12/24 09:03:21;;;;;;;1.40;1.30;;;8.40;79.90;;;;;;5129842;27;20491;-72
2020/12/24 09:05:48;;;;;;;2.00;1.50;;;8.40;79.40;;;;;;5123094;27;20860;-73
2020/12/24 09:08:22;;;;;;;2.33;1.43;;;8.50;79.50;;;;;;5125897;27;20529;-73
2020/12/24 09:10:50;;;;;;;2.10;1.17;;;8.70;79.60;;;;;;5129226;27;20445;-72
2020/12/24 09:13:21;;;;;;;3.13;1.60;;;8.80;79.40;;;;;;5128836;27;20465;-72
2020/12/24 09:15:49;;;;;;;2.87;1.37;;;8.80;78.80;;;;;;5124471;27;20469;-72
2020/12/24 09:18:17;;;;;;;1.43;1.33;;;9.00;79.00;;;;;;5127767;27;20449;-72
2020/12/24 09:20:43;;;;;;;2.07;1.67;;;8.90;78.60;;;;;;5124357;27;20443;-73
2020/12/24 09:23:11;;;;;;;1.73;1.40;;;8.90;78.50;;;;;;5125067;27;21005;-73
2020/12/24 09:25:40;;;;;;;3.67;1.80;;;8.80;78.70;;;;;;5125492;27;20455;-72
2020/12/24 09:28:19;;;;;;;1.37;1.03;;;8.80;79.20;;;;;;5124568;27;20442;-73
2020/12/24 09:30:46;;;;;;;4.83;1.80;;;8.90;78.50;;;;;;5126732;27;21009;-73
2020/12/24 09:33:12;;;;;;;3.30;1.70;;;8.90;78.80;;;;;;5118500;27;20481;-73
2020/12/24 09:35:39;;;;;;;1.53;1.07;;;8.70;78.40;;;;;;5128040;27;20458;-72
2020/12/24 09:38:08;;;;;;;2.13;1.27;;;8.70;78.00;;;;;;5117504;27;20450;-72
2020/12/24 09:40:34;;;;;;;2.20;1.67;;;8.60;77.80;;;;;;5116077;27;20442;-73
2020/12/24 09:43:01;;;;;;;2.93;1.70;;;8.70;78.40;;;;;;5124427;27;20492;-71
2020/12/24 09:45:28;;;;;;;2.10;1.20;;;8.80;78.10;;;;;;5123149;27;20456;-73
2020/12/24 09:47:57;;;;;;;2.50;1.67;;;9.00;77.80;;;;;;5120334;27;20461;-72
2020/12/24 09:50:25;;;;;;;4.43;1.60;;;8.90;77.60;;;;;;5129611;27;20455;-72
2020/12/24 09:52:53;;;;;;;1.37;1.07;;;8.70;77.90;;;;;;5127308;27;20960;-72
2020/12/24 09:55:22;;;;;;;2.90;1.67;;;8.60;78.30;;;;;;5128863;27;20470;-72
2020/12/24 09:57:48;;;;;;;2.40;1.50;;;8.40;78.70;;;;;;5123444;27;20491;-72
2020/12/24 10:00:15;;;;;;;2.50;1.80;;;8.40;79.10;;;;;;5124387;27;20461;-72
2020/12/24 10:02:45;;;;;;;9.47;1.77;;;8.40;79.10;;;;;;5120817;27;20442;-72
2020/12/24 10:05:11;;;;;;;2.73;1.40;;;8.40;79.30;;;;;;5128623;27;20968;-71
2020/12/24 10:07:37;;;;;;;4.07;1.53;;;8.30;78.90;;;;;;5125188;27;20439;-72
2020/12/24 10:10:05;;;;;;;4.17;3.87;;;8.40;79.20;;;;;;5125017;27;20541;-72
2020/12/24 10:12:33;;;;;;;3.90;1.43;;;8.30;78.90;;;;;;5126320;27;20450;-72
2020/12/24 10:15:00;;;;;;;2.83;1.53;;;8.30;79.10;;;;;;5122066;27;20455;-73
2020/12/24 10:17:26;;;;;;;3.37;1.33;;;8.30;79.20;;;;;;5124747;27;20482;-71
2020/12/24 10:19:55;;;;;;;2.10;1.20;;;8.20;78.80;;;;;;5123001;27;20536;-72
2020/12/24 10:22:23;;;;;;;1.83;1.10;;;8.30;79.30;;;;;;5126766;27;20514;-71
2020/12/24 10:24:53;;;;;;;4.10;1.23;;;8.20;79.00;;;;;;5122267;27;20854;-72
2020/12/24 10:27:20;;;;;;;2.13;1.37;;;8.40;78.90;;;;;;5117944;27;20446;-71
2020/12/24 10:29:46;;;;;;;3.53;1.10;;;8.30;79.10;;;;;;5125835;27;20446;-71
2020/12/24 10:32:13;;;;;;;3.80;1.33;;;8.20;78.70;;;;;;5128188;27;20473;-71
2020/12/24 10:34:40;;;;;;;2.07;1.07;;;8.20;78.50;;;;;;5124761;27;20493;-71
2020/12/24 10:37:07;;;;;;;2.87;1.20;;;8.20;79.00;;;;;;5124525;27;20445;-71
2020/12/24 10:39:33;;;;;;;3.47;1.07;;;8.20;78.60;;;;;;5115855;27;20506;-71
2020/12/24 10:42:00;;;;;;;3.97;1.03;;;8.20;78.50;;;;;;5124903;27;21076;-72
2020/12/24 10:44:26;;;;;;;2.37;1.23;;;8.20;78.80;;;;;;5125135;27;20526;-72
2020/12/24 10:46:57;;;;;;;2.20;1.00;;;8.10;79.10;;;;;;5127642;27;20446;-72
2020/12/24 10:49:24;;;;;;;1.43;1.10;;;8.10;78.60;;;;;;5122523;27;20457;-71
2020/12/24 10:51:50;;;;;;;3.50;1.00;;;8.10;78.20;;;;;;5124475;27;20445;-71
2020/12/24 10:54:18;;;;;;;3.13;1.20;;;8.10;78.50;;;;;;5126444;27;20583;-72
2020/12/24 10:56:48;;;;;;;1.30;1.10;;;8.10;78.30;;;;;;5121040;27;20529;-72
2020/12/24 10:59:14;;;;;;;3.03;1.70;;;8.10;78.30;;;;;;5128448;27;20530;-71
2020/12/24 11:01:45;;;;;;;4.20;1.60;;;8.00;77.80;;;;;;5124639;27;20453;-72
2020/12/24 11:04:12;;;;;;;2.80;1.00;;;8.10;78.70;;;;;;5128061;27;20445;-72
2020/12/24 11:06:42;;;;;;;3.40;1.40;;;8.20;78.20;;;;;;5121995;27;20463;-72
2020/12/24 11:09:09;;;;;;;5.63;1.30;;;8.20;78.30;;;;;;5126810;27;20457;-71
2020/12/24 11:11:36;;;;;;;2.80;1.40;;;8.10;78.90;;;;;;5124434;27;20442;-72
2020/12/24 11:14:03;;;;;;;2.30;1.70;;;8.10;78.60;;;;;;5139511;27;20534;-77
2020/12/24 11:16:30;;;;;;;5.07;1.70;;;8.10;78.80;;;;;;5141541;27;20462;-78
2020/12/24 11:18:57;;;;;;;3.30;2.03;;;8.00;79.30;;;;;;5142918;27;20444;-77
2020/12/24 11:21:23;;;;;;;2.90;1.27;;;8.00;79.80;;;;;;5134128;27;20548;-77
2020/12/24 11:23:50;;;;;;;3.70;1.10;;;7.90;79.40;;;;;;5136753;27;20465;-78
2020/12/24 11:26:23;;;;;;;2.83;1.43;;;7.90;79.70;;;;;;5134460;27;20449;-78
2020/12/24 11:28:50;;;;;;;3.90;1.90;;;7.90;80.40;;;;;;5132947;27;20789;-78
2020/12/24 11:31:23;;;;;;;3.20;1.00;;;8.00;80.50;;;;;;5132412;27;20449;-78
2020/12/24 11:33:50;;;;;;;4.17;1.27;;;7.80;79.80;;;;;;5135052;27;20473;-77
2020/12/24 11:36:17;;;;;;;2.70;1.57;;;7.70;80.30;;;;;;5131717;27;20741;-80
2020/12/24 11:38:45;;;;;;;2.90;1.30;;;7.70;81.20;;;;;;5133467;27;20968;-77
2020/12/24 11:41:15;;;;;;;4.93;1.70;;;7.80;81.10;;;;;;5134194;27;20442;-78
2020/12/24 11:43:42;;;;;;;4.73;1.10;;;7.80;81.60;;;;;;5125091;27;20446;-78
2020/12/24 11:46:10;;;;;;;2.50;1.47;;;7.80;81.70;;;;;;5135811;27;21006;-79
2020/12/24 11:48:37;;;;;;;2.87;1.77;;;7.80;82.20;;;;;;5127151;27;20458;-78
2020/12/24 11:51:15;;;;;;;2.60;1.40;;;7.80;82.40;;;;;;5138181;27;20505;-78
2020/12/24 11:53:43;;;;;;;2.73;1.27;;;7.70;82.10;;;;;;5130246;27;20447;-77
2020/12/24 11:56:13;;;;;;;4.90;1.40;;;7.60;82.50;;;;;;5133895;27;20494;-78
2020/12/24 11:58:40;;;;;;;3.60;1.50;;;7.50;83.10;;;;;;5132689;27;20464;-78
2020/12/24 12:01:07;;;;;;;3.83;1.40;;;7.50;83.50;;;;;;5134578;27;20445;-77
2020/12/24 12:03:37;;;;;;;2.50;1.50;;;7.60;84.60;;;;;;5133978;27;20461;-78
2020/12/24 12:06:05;;;;;;;4.60;1.27;;;7.60;85.50;;;;;;5135455;27;20529;-77
2020/12/24 12:08:31;;;;;;;5.10;1.60;;;7.60;85.20;;;;;;5135217;27;20453;-78
2020/12/24 12:11:01;;;;;;;3.97;1.20;;;7.60;86.50;;;;;;5133227;27;20445;-76
2020/12/24 12:13:27;;;;;;;3.33;0.97;;;7.70;86.00;;;;;;5132128;27;20484;-78
2020/12/24 12:15:54;;;;;;;1.30;1.13;;;7.70;85.20;;;;;;5135210;27;20585;-78
2020/12/24 12:18:21;;;;;;;3.20;1.40;;;7.70;85.40;;;;;;5126189;27;21250;-78
2020/12/24 12:20:49;;;;;;;6.43;1.23;;;7.70;85.90;;;;;;5137734;27;20454;-77
2020/12/24 12:23:16;;;;;;;1.43;1.00;;;7.80;84.90;;;;;;5127893;27;20450;-78
2020/12/24 12:25:42;;;;;;;1.37;1.17;;;7.70;85.70;;;;;;5133761;27;20468;-76
2020/12/24 12:28:09;;;;;;;2.33;1.57;;;7.80;86.00;;;;;;5127396;27;20434;-79
2020/12/24 12:30:39;;;;;;;2.80;1.87;;;7.90;83.90;;;;;;5133113;27;20455;-76
2020/12/24 12:33:08;;;;;;;1.30;1.00;;;8.10;85.60;;;;;;5132901;27;20433;-79
2020/12/24 12:35:34;;;;;;;3.27;1.43;;;8.20;84.80;;;;;;5131025;27;20461;-76
2020/12/24 12:38:04;;;;;;;1.80;1.03;;;8.10;82.60;;;;;;5132391;27;20963;-76
2020/12/24 12:40:31;;;;;;;1.40;1.00;;;8.00;82.60;;;;;;5130346;27;20465;-76
2020/12/24 12:42:57;;;;;;;1.80;1.37;;;7.90;83.20;;;;;;5128104;27;20447;-76
2020/12/24 12:45:24;;;;;;;2.30;1.50;;;7.90;83.00;;;;;;5128508;27;20462;-77
2020/12/24 12:47:51;;;;;;;2.90;1.30;;;7.80;82.20;;;;;;5126296;27;20501;-80
2020/12/24 12:50:18;;;;;;;1.10;1.00;;;7.70;82.60;;;;;;5128817;27;21022;-77
2020/12/24 12:52:44;;;;;;;2.10;0.97;;;7.70;82.80;;;;;;5130888;27;20506;-77
2020/12/24 12:55:12;;;;;;;2.33;0.73;;;7.70;83.00;;;;;;5128885;27;20510;-77
2020/12/24 12:57:38;;;;;;;2.13;0.70;;;7.50;82.50;;;;;;5135579;27;20438;-77
2020/12/24 13:00:09;;;;;;;0.80;0.60;;;7.50;84.50;;;;;;5122173;27;20488;-76
2020/12/24 13:02:36;;;;;;;1.27;0.80;;;7.50;83.60;;;;;;5130269;27;20458;-76